Time;durP1;ratioP1;P1;durP2;ratioP2;P2;SDS_P1;SDS_P2;PMS_P1;PMS_P2;Temp;Humidity;BMP_temperature;BMP_pressure;BME280_temperature;BME280_humidity;BME280_pressure;Samples;Min_cycle;Max_cycle;Signal;HPM_P1;HPM_P2
2021/01/09 00:01:54;;;;;;;42.60;21.80;;;1.30;99.90;;;;;;476334;249;27433;-69
2021/01/09 00:03:55;;;;;;;36.70;21.02;;;1.20;99.90;;;;;;476161;249;28828;-69
2021/01/09 00:05:57;;;;;;;40.03;23.55;;;1.20;99.90;;;;;;476337;249;27879;-70
2021/01/09 00:07:58;;;;;;;40.50;22.73;;;1.20;99.90;;;;;;476344;249;27471;-70
2021/01/09 00:09:59;;;;;;;41.88;22.60;;;1.20;99.90;;;;;;476291;249;27442;-71
2021/01/09 00:12:00;;;;;;;41.37;23.65;;;1.20;99.90;;;;;;476299;249;27456;-69
2021/01/09 00:14:02;;;;;;;43.35;23.15;;;1.20;99.90;;;;;;476340;248;27802;-71
2021/01/09 00:16:03;;;;;;;42.78;23.12;;;1.20;99.90;;;;;;476337;249;27516;-69
2021/01/09 00:18:04;;;;;;;42.03;23.12;;;1.10;99.90;;;;;;476442;249;28002;-69
2021/01/09 00:20:05;;;;;;;46.13;23.73;;;1.10;99.90;;;;;;476455;249;29090;-70
2021/01/09 00:22:07;;;;;;;45.92;25.33;;;1.10;99.90;;;;;;476535;249;27429;-69
2021/01/09 00:24:08;;;;;;;50.03;25.20;;;1.10;99.90;;;;;;476538;249;27460;-70
2021/01/09 00:26:09;;;;;;;44.75;25.23;;;1.10;99.90;;;;;;476530;249;27422;-69
2021/01/09 00:28:10;;;;;;;45.83;25.35;;;1.10;99.90;;;;;;476521;249;27570;-69
2021/01/09 00:30:12;;;;;;;43.87;23.98;;;1.10;99.90;;;;;;476500;249;27446;-69
2021/01/09 00:32:13;;;;;;;50.53;25.40;;;1.00;99.90;;;;;;476271;249;27548;-70
2021/01/09 00:34:14;;;;;;;51.88;25.77;;;1.00;99.90;;;;;;476114;249;27924;-70
2021/01/09 00:36:15;;;;;;;45.70;23.70;;;1.10;99.90;;;;;;476437;249;27919;-69
2021/01/09 00:38:17;;;;;;;45.45;24.92;;;1.20;99.90;;;;;;476272;249;27541;-70
2021/01/09 00:40:18;;;;;;;43.33;23.42;;;1.20;99.90;;;;;;476296;249;27465;-70
2021/01/09 00:42:19;;;;;;;44.50;23.60;;;1.20;99.90;;;;;;476315;249;27524;-69
2021/01/09 00:44:21;;;;;;;44.45;23.65;;;1.20;99.90;;;;;;476313;249;27456;-70
2021/01/09 00:46:22;;;;;;;37.58;21.98;;;1.20;99.90;;;;;;476361;249;27506;-69
2021/01/09 00:48:23;;;;;;;50.12;24.63;;;1.10;99.90;;;;;;476351;249;27528;-70
2021/01/09 00:50:24;;;;;;;47.45;24.00;;;1.10;99.90;;;;;;476284;249;28025;-70
2021/01/09 00:52:26;;;;;;;46.33;24.95;;;1.10;99.90;;;;;;476294;249;27932;-69
2021/01/09 00:54:27;;;;;;;42.20;23.70;;;1.10;99.90;;;;;;476323;247;27444;-71
2021/01/09 00:56:28;;;;;;;43.70;23.08;;;1.20;99.90;;;;;;475653;249;27547;-69
2021/01/09 00:58:29;;;;;;;43.15;23.15;;;1.20;99.90;;;;;;476017;249;27454;-70
2021/01/09 01:00:31;;;;;;;45.50;23.80;;;1.10;99.90;;;;;;476216;249;27552;-70
2021/01/09 01:02:32;;;;;;;48.90;24.05;;;1.20;99.90;;;;;;476343;248;27540;-70
2021/01/09 01:04:33;;;;;;;46.65;25.40;;;1.10;99.90;;;;;;476347;249;28103;-69
2021/01/09 01:06:34;;;;;;;42.72;23.50;;;1.10;99.90;;;;;;476365;248;27941;-70
2021/01/09 01:08:36;;;;;;;43.35;25.05;;;1.10;99.90;;;;;;476347;248;28056;-69
2021/01/09 01:10:37;;;;;;;43.38;24.20;;;1.00;99.90;;;;;;476301;249;27448;-70
2021/01/09 01:12:38;;;;;;;46.28;25.20;;;1.00;99.90;;;;;;476342;249;27550;-71
2021/01/09 01:14:39;;;;;;;48.95;24.02;;;0.90;99.90;;;;;;476377;249;27429;-69
2021/01/09 01:16:43;;;;;;;42.88;24.23;;;0.90;99.90;;;;;;476439;249;27528;-70
2021/01/09 01:18:42;;;;;;;46.45;25.37;;;0.90;99.90;;;;;;476298;249;27484;-70
2021/01/09 01:20:43;;;;;;;47.58;26.75;;;0.80;99.90;;;;;;476401;248;28051;-70
2021/01/09 01:22:44;;;;;;;42.45;23.15;;;0.80;99.90;;;;;;476339;249;29128;-70
2021/01/09 01:24:46;;;;;;;46.65;25.00;;;0.70;99.90;;;;;;476313;249;27465;-70
2021/01/09 01:26:47;;;;;;;43.85;22.67;;;0.70;99.90;;;;;;476366;249;27456;-68
2021/01/09 01:28:48;;;;;;;47.40;23.38;;;0.70;99.90;;;;;;476452;249;27424;-69
2021/01/09 01:30:49;;;;;;;41.25;23.62;;;0.70;99.90;;;;;;476411;248;27557;-72
2021/01/09 01:32:51;;;;;;;43.67;25.02;;;0.80;99.90;;;;;;476536;249;27536;-72
2021/01/09 01:34:52;;;;;;;44.88;23.80;;;0.80;99.90;;;;;;476522;249;27514;-69
2021/01/09 01:36:53;;;;;;;41.63;22.27;;;0.80;99.90;;;;;;476483;249;27967;-69
2021/01/09 01:38:54;;;;;;;46.08;25.05;;;0.80;99.90;;;;;;476505;249;27890;-69
2021/01/09 01:40:56;;;;;;;47.10;24.77;;;0.80;99.90;;;;;;476422;249;27521;-69
2021/01/09 01:42:57;;;;;;;40.40;22.25;;;0.80;99.90;;;;;;476426;248;27540;-72
2021/01/09 01:44:58;;;;;;;42.10;23.45;;;0.70;99.90;;;;;;476455;249;27480;-69
2021/01/09 01:46:59;;;;;;;44.38;24.35;;;0.70;99.90;;;;;;476390;248;27575;-69
2021/01/09 01:49:01;;;;;;;49.97;26.62;;;0.80;99.90;;;;;;476136;249;27444;-71
2021/01/09 01:51:02;;;;;;;46.10;25.45;;;0.60;99.90;;;;;;476163;249;27468;-69
2021/01/09 01:53:03;;;;;;;43.35;23.08;;;0.50;99.90;;;;;;476481;248;28056;-70
2021/01/09 01:55:05;;;;;;;36.17;21.08;;;0.60;99.90;;;;;;476537;248;27903;-69
2021/01/09 01:57:07;;;;;;;39.92;21.50;;;0.60;99.90;;;;;;476527;249;27453;-69
2021/01/09 01:59:07;;;;;;;38.78;22.33;;;0.50;99.90;;;;;;476528;249;27453;-70
2021/01/09 02:01:08;;;;;;;41.22;21.60;;;0.60;99.90;;;;;;476479;248;27436;-70
2021/01/09 02:03:10;;;;;;;38.10;21.37;;;0.60;99.90;;;;;;476467;249;27890;-71
2021/01/09 02:05:11;;;;;;;36.67;21.37;;;0.60;99.90;;;;;;476237;249;27460;-70
2021/01/09 02:07:12;;;;;;;34.90;20.17;;;0.70;99.90;;;;;;476326;249;28038;-70
2021/01/09 02:09:13;;;;;;;36.88;20.73;;;0.70;99.90;;;;;;476356;249;27940;-69
2021/01/09 02:11:15;;;;;;;36.83;20.58;;;0.70;99.90;;;;;;476269;249;27453;-70
2021/01/09 02:13:16;;;;;;;35.55;21.00;;;0.70;99.90;;;;;;476259;248;27476;-69
2021/01/09 02:15:17;;;;;;;35.10;21.10;;;0.70;99.90;;;;;;476408;248;27500;-69
2021/01/09 02:17:18;;;;;;;35.03;20.98;;;0.70;99.90;;;;;;476369;249;27446;-70
2021/01/09 02:19:20;;;;;;;38.55;21.27;;;0.70;99.90;;;;;;476367;249;27461;-69
2021/01/09 02:21:21;;;;;;;33.92;19.70;;;0.70;99.90;;;;;;476318;249;27513;-69
2021/01/09 02:23:22;;;;;;;37.58;19.87;;;0.70;99.90;;;;;;476323;249;27929;-69
2021/01/09 02:25:23;;;;;;;34.25;18.75;;;0.80;99.90;;;;;;476349;249;28030;-71
2021/01/09 02:27:25;;;;;;;28.80;17.90;;;0.90;99.90;;;;;;476340;249;27459;-70
2021/01/09 02:29:26;;;;;;;32.50;18.23;;;0.80;99.90;;;;;;476346;249;27472;-69
2021/01/09 02:31:27;;;;;;;29.20;17.98;;;0.90;99.90;;;;;;476299;249;27460;-69
2021/01/09 02:33:28;;;;;;;37.97;18.50;;;0.80;99.90;;;;;;476353;249;27460;-68
2021/01/09 02:35:30;;;;;;;26.90;17.83;;;0.80;99.90;;;;;;476351;249;27549;-69
2021/01/09 02:37:32;;;;;;;29.23;18.83;;;0.80;99.90;;;;;;476333;249;27540;-69
2021/01/09 02:39:32;;;;;;;31.30;18.12;;;0.80;99.90;;;;;;476315;249;27931;-68
2021/01/09 02:41:33;;;;;;;32.60;18.58;;;0.90;99.90;;;;;;476325;249;27886;-70
2021/01/09 02:43:36;;;;;;;28.02;18.10;;;0.80;99.90;;;;;;476458;248;27484;-68
2021/01/09 02:45:36;;;;;;;29.73;18.45;;;0.60;99.90;;;;;;476384;248;27539;-69
2021/01/09 02:47:37;;;;;;;31.15;17.58;;;0.40;99.90;;;;;;476459;248;27528;-70
2021/01/09 02:49:38;;;;;;;28.87;16.30;;;0.40;99.90;;;;;;476416;249;27508;-68
2021/01/09 02:51:40;;;;;;;29.37;17.37;;;0.40;99.90;;;;;;475788;248;27464;-71
2021/01/09 02:53:41;;;;;;;28.55;17.15;;;0.40;99.90;;;;;;476340;249;27945;-68
2021/01/09 02:55:42;;;;;;;26.00;16.92;;;0.40;99.90;;;;;;476356;249;27919;-69
2021/01/09 02:57:43;;;;;;;30.23;18.55;;;0.40;99.90;;;;;;476361;248;27444;-69
2021/01/09 02:59:45;;;;;;;28.40;16.77;;;0.40;99.90;;;;;;476358;248;27440;-69
2021/01/09 03:01:46;;;;;;;28.48;17.35;;;0.40;99.90;;;;;;476376;249;27464;-69
2021/01/09 03:03:47;;;;;;;29.30;17.48;;;0.40;99.90;;;;;;476483;248;27521;-69
2021/01/09 03:05:48;;;;;;;27.17;16.70;;;0.30;99.90;;;;;;476485;249;27463;-69
2021/01/09 03:07:50;;;;;;;32.67;18.58;;;0.30;99.90;;;;;;476508;249;27456;-70
2021/01/09 03:09:51;;;;;;;28.62;18.70;;;0.20;99.90;;;;;;476528;249;28103;-68
2021/01/09 03:11:52;;;;;;;28.00;17.48;;;0.10;99.90;;;;;;476480;249;27962;-69
2021/01/09 03:13:54;;;;;;;28.35;17.58;;;0.10;99.90;;;;;;476513;249;27557;-68
2021/01/09 03:15:55;;;;;;;27.15;16.62;;;0.00;99.90;;;;;;476488;248;27456;-69
2021/01/09 03:17:56;;;;;;;28.70;17.60;;;0.00;99.90;;;;;;476139;249;27477;-69
2021/01/09 03:19:57;;;;;;;31.35;18.55;;;-0.10;99.90;;;;;;476258;248;27418;-69
2021/01/09 03:21:59;;;;;;;28.10;17.87;;;-0.10;99.90;;;;;;476434;249;27501;-68
2021/01/09 03:24:00;;;;;;;27.23;16.83;;;-0.20;99.90;;;;;;476429;249;27460;-70
2021/01/09 03:26:02;;;;;;;31.20;18.12;;;-0.20;99.90;;;;;;476443;249;27844;-69
2021/01/09 03:28:03;;;;;;;33.20;17.62;;;-0.30;99.90;;;;;;476468;249;27466;-70
2021/01/09 03:30:04;;;;;;;33.33;18.20;;;-0.40;99.90;;;;;;476440;248;27462;-69
2021/01/09 03:32:06;;;;;;;32.63;18.30;;;-0.40;99.90;;;;;;476476;249;27974;-68
2021/01/09 03:34:07;;;;;;;29.85;17.55;;;-0.50;99.90;;;;;;476396;249;27449;-69
2021/01/09 03:36:08;;;;;;;30.90;17.15;;;-0.60;99.90;;;;;;476420;248;27446;-69
2021/01/09 03:38:09;;;;;;;28.02;16.85;;;-0.60;99.90;;;;;;476396;248;27464;-69
2021/01/09 03:40:11;;;;;;;33.00;18.58;;;-0.60;99.90;;;;;;476247;248;27533;-69
2021/01/09 03:42:12;;;;;;;34.10;19.08;;;-0.60;99.90;;;;;;476314;249;27469;-68
2021/01/09 03:44:13;;;;;;;29.15;17.60;;;-0.60;99.90;;;;;;476342;249;27956;-70
2021/01/09 03:46:14;;;;;;;31.35;16.55;;;-0.60;99.90;;;;;;476356;248;28048;-70
2021/01/09 03:48:16;;;;;;;26.98;15.82;;;-0.60;99.90;;;;;;476334;248;27477;-69
2021/01/09 03:50:17;;;;;;;30.35;17.23;;;-0.60;99.90;;;;;;476294;248;27500;-69
2021/01/09 03:52:18;;;;;;;27.15;16.30;;;-0.60;99.90;;;;;;476351;249;27531;-69
2021/01/09 03:54:19;;;;;;;29.98;17.08;;;-0.60;99.90;;;;;;476316;248;27556;-69
2021/01/09 03:56:21;;;;;;;27.13;16.58;;;-0.60;99.90;;;;;;476334;249;28009;-69
2021/01/09 03:58:22;;;;;;;23.65;14.55;;;-0.60;99.90;;;;;;476336;248;27948;-69
2021/01/09 04:00:23;;;;;;;27.25;14.80;;;-0.70;99.90;;;;;;476317;248;27536;-69
2021/01/09 04:02:24;;;;;;;26.95;16.08;;;-0.70;99.90;;;;;;476375;249;27452;-68
2021/01/09 04:04:26;;;;;;;29.63;16.87;;;-0.70;99.90;;;;;;476330;249;27898;-68
2021/01/09 04:06:27;;;;;;;28.20;16.62;;;-0.80;99.90;;;;;;476326;249;27467;-69
2021/01/09 04:08:28;;;;;;;29.80;17.40;;;-0.80;99.90;;;;;;476327;248;27933;-69
2021/01/09 04:10:29;;;;;;;30.10;16.85;;;-0.90;99.90;;;;;;476291;249;28043;-68
2021/01/09 04:12:31;;;;;;;28.33;16.58;;;-0.80;99.90;;;;;;476382;248;27465;-70
2021/01/09 04:14:32;;;;;;;34.95;17.95;;;-0.80;99.90;;;;;;476415;249;27520;-68
2021/01/09 04:16:33;;;;;;;31.48;18.02;;;-0.80;99.90;;;;;;476278;249;27465;-68
2021/01/09 04:18:34;;;;;;;30.80;17.37;;;-0.80;99.90;;;;;;476369;249;27452;-69
2021/01/09 04:20:36;;;;;;;27.23;16.73;;;-0.70;99.90;;;;;;476306;248;27468;-68
2021/01/09 04:22:37;;;;;;;29.65;16.37;;;-0.70;99.90;;;;;;476359;249;27986;-69
2021/01/09 04:24:38;;;;;;;30.62;16.70;;;-0.70;99.90;;;;;;476335;249;27422;-68
2021/01/09 04:26:40;;;;;;;32.05;17.35;;;-0.70;99.90;;;;;;476346;249;27472;-68
2021/01/09 04:28:41;;;;;;;35.78;19.20;;;-0.70;99.90;;;;;;476383;249;27822;-70
2021/01/09 04:30:42;;;;;;;29.27;17.17;;;-0.80;99.90;;;;;;476387;249;27410;-68
2021/01/09 04:32:43;;;;;;;30.92;17.17;;;-0.70;99.90;;;;;;476427;249;27568;-69
2021/01/09 04:34:47;;;;;;;31.52;16.85;;;-0.70;99.90;;;;;;476473;249;28997;-68
2021/01/09 04:36:46;;;;;;;32.63;17.40;;;-0.70;99.90;;;;;;476336;249;29167;-68
2021/01/09 04:38:47;;;;;;;30.77;17.33;;;-0.60;99.90;;;;;;476484;248;27488;-70
2021/01/09 04:40:48;;;;;;;31.48;17.58;;;-0.60;99.90;;;;;;476457;248;27490;-69
2021/01/09 04:42:50;;;;;;;27.55;16.70;;;-0.50;99.90;;;;;;476511;249;27564;-69
2021/01/09 04:44:51;;;;;;;33.50;17.62;;;-0.50;99.90;;;;;;476505;249;27452;-68
2021/01/09 04:46:52;;;;;;;29.63;16.70;;;-0.50;99.90;;;;;;476506;249;27894;-69
2021/01/09 04:48:53;;;;;;;29.23;16.65;;;-0.40;99.90;;;;;;476502;249;28030;-68
2021/01/09 04:50:55;;;;;;;30.80;17.00;;;-0.50;99.90;;;;;;476434;249;27413;-68
2021/01/09 04:52:56;;;;;;;32.90;17.73;;;-0.60;99.90;;;;;;476262;249;27453;-69
2021/01/09 04:54:59;;;;;;;29.12;16.50;;;-0.50;99.90;;;;;;475696;248;27464;-70
2021/01/09 04:56:58;;;;;;;28.40;16.52;;;-0.50;99.90;;;;;;475537;249;27476;-68
2021/01/09 04:59:00;;;;;;;26.52;15.50;;;-0.50;99.90;;;;;;476477;249;27944;-70
2021/01/09 05:01:01;;;;;;;25.30;15.05;;;-0.50;99.90;;;;;;476422;249;27872;-68
2021/01/09 05:03:02;;;;;;;29.75;17.10;;;-0.30;99.90;;;;;;476354;248;27513;-68
2021/01/09 05:05:03;;;;;;;26.40;15.63;;;-0.30;99.90;;;;;;475924;249;27457;-69
2021/01/09 05:07:05;;;;;;;24.67;16.37;;;-0.20;99.90;;;;;;476390;249;27437;-68
2021/01/09 05:09:06;;;;;;;27.62;15.85;;;-0.20;99.90;;;;;;476380;249;27460;-69
2021/01/09 05:11:07;;;;;;;25.70;14.52;;;-0.10;99.90;;;;;;476274;249;27446;-69
2021/01/09 05:13:08;;;;;;;24.25;14.75;;;-0.10;99.90;;;;;;476335;249;27920;-69
2021/01/09 05:15:10;;;;;;;24.45;14.50;;;0.00;99.90;;;;;;476299;248;27468;-68
2021/01/09 05:17:11;;;;;;;30.00;16.62;;;0.00;99.90;;;;;;476327;249;27475;-69
2021/01/09 05:19:12;;;;;;;27.55;15.77;;;0.00;99.90;;;;;;476369;248;27520;-68
2021/01/09 05:21:14;;;;;;;21.12;13.90;;;0.00;99.90;;;;;;476307;248;27464;-71
2021/01/09 05:23:15;;;;;;;29.27;15.18;;;0.00;99.90;;;;;;476344;249;27469;-70
2021/01/09 05:25:16;;;;;;;24.65;15.18;;;0.00;99.90;;;;;;476351;249;27574;-69
2021/01/09 05:27:17;;;;;;;23.85;14.30;;;0.00;99.90;;;;;;476348;249;27996;-69
2021/01/09 05:29:19;;;;;;;25.27;15.70;;;-0.10;99.90;;;;;;476383;249;27880;-70
2021/01/09 05:31:20;;;;;;;22.17;14.70;;;-0.10;99.90;;;;;;476300;248;27456;-69
2021/01/09 05:33:21;;;;;;;23.38;15.05;;;-0.20;99.90;;;;;;476320;248;27558;-69
2021/01/09 05:35:22;;;;;;;25.48;15.60;;;-0.20;99.90;;;;;;476335;248;27450;-69
2021/01/09 05:37:24;;;;;;;26.27;15.05;;;-0.20;99.90;;;;;;476350;249;27489;-70
2021/01/09 05:39:25;;;;;;;28.10;16.37;;;-0.20;99.90;;;;;;476377;249;27519;-69
2021/01/09 05:41:26;;;;;;;27.45;15.35;;;-0.30;99.90;;;;;;476364;248;27923;-70
2021/01/09 05:43:27;;;;;;;24.35;14.80;;;-0.50;99.90;;;;;;476472;249;27465;-69
2021/01/09 05:45:29;;;;;;;26.15;15.70;;;-0.60;99.90;;;;;;476490;249;27420;-68
2021/01/09 05:47:30;;;;;;;26.60;16.30;;;-0.60;99.90;;;;;;476451;249;27558;-69
2021/01/09 05:49:31;;;;;;;29.60;16.62;;;-0.50;99.90;;;;;;476124;249;27425;-69
2021/01/09 05:51:32;;;;;;;24.98;14.48;;;-0.50;99.90;;;;;;476329;249;27469;-68
2021/01/09 05:53:34;;;;;;;25.60;14.80;;;-0.40;99.90;;;;;;476362;249;28699;-71
2021/01/09 05:55:35;;;;;;;27.23;15.60;;;-0.30;99.90;;;;;;476405;249;27869;-69
2021/01/09 05:57:36;;;;;;;24.90;15.25;;;-0.20;99.90;;;;;;476432;249;27456;-70
2021/01/09 05:59:37;;;;;;;22.80;15.18;;;-0.20;99.90;;;;;;476476;249;27489;-69
2021/01/09 06:01:39;;;;;;;22.42;13.30;;;-0.10;99.90;;;;;;476424;248;27548;-69
2021/01/09 06:03:40;;;;;;;22.75;13.62;;;-0.20;99.90;;;;;;476506;249;27469;-70
2021/01/09 06:05:41;;;;;;;22.42;14.13;;;-0.10;99.90;;;;;;476522;249;27857;-69
2021/01/09 06:07:42;;;;;;;22.08;12.90;;;-0.10;99.90;;;;;;476496;248;27943;-69
2021/01/09 06:09:44;;;;;;;22.98;14.10;;;-0.10;99.90;;;;;;476448;248;27485;-68
2021/01/09 06:11:45;;;;;;;24.85;14.55;;;0.00;99.90;;;;;;476202;249;27453;-69
2021/01/09 06:13:46;;;;;;;19.17;11.80;;;0.00;99.90;;;;;;476372;248;27456;-70
2021/01/09 06:15:47;;;;;;;26.12;14.82;;;0.00;99.90;;;;;;476293;249;27505;-69
2021/01/09 06:17:49;;;;;;;25.20;14.52;;;0.00;99.90;;;;;;476434;249;27456;-70
2021/01/09 06:19:50;;;;;;;26.48;15.55;;;0.00;99.90;;;;;;476469;249;28646;-69
2021/01/09 06:21:55;;;;;;;22.27;13.80;;;0.00;99.90;;;;;;476402;249;27952;-69
2021/01/09 06:23:53;;;;;;;22.27;14.10;;;-0.10;99.90;;;;;;476305;249;27547;-70
2021/01/09 06:25:54;;;;;;;21.05;13.35;;;-0.10;99.90;;;;;;476501;249;27421;-69
2021/01/09 06:27:55;;;;;;;22.83;13.77;;;-0.10;99.90;;;;;;476512;249;27465;-70
2021/01/09 06:29:56;;;;;;;25.92;13.38;;;-0.20;99.90;;;;;;476448;248;27826;-71
2021/01/09 06:31:58;;;;;;;22.52;13.60;;;-0.10;99.90;;;;;;475963;248;27556;-69
2021/01/09 06:33:59;;;;;;;23.23;14.40;;;-0.10;99.90;;;;;;476110;249;27999;-70
2021/01/09 06:36:00;;;;;;;21.52;13.62;;;-0.20;99.90;;;;;;476249;249;27917;-69
2021/01/09 06:38:01;;;;;;;23.17;14.15;;;-0.20;99.90;;;;;;476385;248;27565;-69
2021/01/09 06:40:03;;;;;;;25.98;14.68;;;-0.10;99.90;;;;;;476335;249;27536;-70
2021/01/09 06:42:04;;;;;;;23.33;14.52;;;0.00;99.90;;;;;;476378;249;27464;-68
2021/01/09 06:44:05;;;;;;;22.33;13.73;;;0.10;99.90;;;;;;476401;248;27464;-70
2021/01/09 06:46:06;;;;;;;23.30;14.38;;;0.20;99.90;;;;;;476408;249;27466;-69
2021/01/09 06:48:08;;;;;;;22.02;13.73;;;0.20;99.90;;;;;;476388;249;27980;-69
2021/01/09 06:50:09;;;;;;;23.17;14.60;;;0.20;99.90;;;;;;476259;248;28009;-70
2021/01/09 06:52:10;;;;;;;21.73;13.60;;;0.10;99.90;;;;;;476357;248;27445;-69
2021/01/09 06:54:11;;;;;;;24.40;14.65;;;0.20;99.90;;;;;;476391;249;27558;-70
2021/01/09 06:56:13;;;;;;;24.10;13.68;;;0.20;99.90;;;;;;476354;249;27816;-71
2021/01/09 06:58:14;;;;;;;28.27;15.73;;;0.30;99.90;;;;;;476345;249;27444;-69
2021/01/09 07:00:15;;;;;;;21.15;13.40;;;0.20;99.90;;;;;;476299;249;27508;-69
2021/01/09 07:02:16;;;;;;;22.35;13.98;;;0.10;99.90;;;;;;476340;248;27952;-69
2021/01/09 07:04:18;;;;;;;22.52;13.32;;;0.10;99.90;;;;;;476335;248;28023;-69
2021/01/09 07:06:19;;;;;;;22.20;13.35;;;0.00;99.90;;;;;;476316;249;27453;-69
2021/01/09 07:08:20;;;;;;;19.20;13.00;;;-0.10;99.90;;;;;;476329;248;27456;-69
2021/01/09 07:10:21;;;;;;;22.25;14.23;;;-0.10;99.90;;;;;;476279;249;27436;-69
2021/01/09 07:12:23;;;;;;;21.35;13.68;;;-0.10;99.90;;;;;;476397;249;27458;-69
2021/01/09 07:14:24;;;;;;;23.75;14.40;;;0.00;99.90;;;;;;476436;248;27433;-69
2021/01/09 07:16:25;;;;;;;25.27;15.70;;;0.00;99.90;;;;;;476476;248;27938;-68
2021/01/09 07:18:26;;;;;;;24.92;16.15;;;0.00;99.90;;;;;;476453;249;27942;-70
2021/01/09 07:20:28;;;;;;;24.10;15.00;;;0.00;99.90;;;;;;476150;249;27452;-69
2021/01/09 07:22:29;;;;;;;24.87;14.50;;;0.00;99.90;;;;;;476264;249;27452;-71
2021/01/09 07:24:30;;;;;;;25.92;14.23;;;0.00;99.90;;;;;;476354;248;27480;-69
2021/01/09 07:26:32;;;;;;;24.25;14.57;;;0.00;99.90;;;;;;476343;249;27465;-69
2021/01/09 07:28:33;;;;;;;33.30;14.25;;;0.00;99.90;;;;;;476340;249;27456;-70
2021/01/09 07:30:34;;;;;;;26.25;15.32;;;0.00;99.90;;;;;;476252;249;27456;-69
2021/01/09 07:32:35;;;;;;;25.70;14.25;;;0.10;99.90;;;;;;476368;249;28115;-69
2021/01/09 07:34:37;;;;;;;20.05;13.60;;;0.10;99.90;;;;;;476315;249;28073;-69
2021/01/09 07:36:38;;;;;;;24.37;14.55;;;0.10;99.90;;;;;;476345;249;27464;-69
2021/01/09 07:38:39;;;;;;;25.35;14.23;;;0.10;99.90;;;;;;476333;249;27448;-70
2021/01/09 07:40:40;;;;;;;23.52;15.63;;;0.10;99.90;;;;;;476276;248;27449;-69
2021/01/09 07:42:42;;;;;;;24.55;14.63;;;0.00;99.90;;;;;;476407;248;27477;-69
2021/01/09 07:44:43;;;;;;;25.98;15.38;;;-0.10;99.90;;;;;;476372;249;27484;-69
2021/01/09 07:46:44;;;;;;;24.55;14.95;;;-0.10;99.90;;;;;;476461;248;28016;-69
2021/01/09 07:48:45;;;;;;;22.83;14.07;;;-0.10;99.90;;;;;;476500;248;27948;-71
2021/01/09 07:50:47;;;;;;;24.02;14.00;;;0.00;99.90;;;;;;476438;249;27449;-69
2021/01/09 07:52:48;;;;;;;21.77;14.18;;;0.00;99.90;;;;;;476381;249;27548;-69
2021/01/09 07:54:54;;;;;;;24.73;14.80;;;0.10;99.90;;;;;;476196;249;27452;-69
2021/01/09 07:56:50;;;;;;;21.95;13.27;;;0.10;99.90;;;;;;475353;249;27475;-69
2021/01/09 07:58:52;;;;;;;24.30;14.40;;;0.10;99.90;;;;;;476218;249;27794;-71
2021/01/09 08:00:53;;;;;;;22.25;13.80;;;0.10;99.90;;;;;;476254;249;27425;-69
2021/01/09 08:02:54;;;;;;;22.05;13.80;;;0.10;99.90;;;;;;476375;249;27953;-69
2021/01/09 08:04:55;;;;;;;24.58;15.25;;;0.10;99.90;;;;;;476359;249;27862;-69
2021/01/09 08:06:57;;;;;;;25.25;14.93;;;0.10;99.90;;;;;;476340;249;27462;-69
2021/01/09 08:08:58;;;;;;;24.50;15.25;;;0.20;99.90;;;;;;476360;249;27452;-70
2021/01/09 08:10:59;;;;;;;25.80;14.90;;;0.20;99.90;;;;;;476242;249;27425;-69
2021/01/09 08:13:00;;;;;;;20.15;13.57;;;0.20;99.90;;;;;;476354;249;27552;-69
2021/01/09 08:15:02;;;;;;;20.90;13.20;;;0.10;99.90;;;;;;476334;249;27468;-71
2021/01/09 08:17:03;;;;;;;24.25;15.07;;;0.10;99.90;;;;;;476266;249;28081;-68
2021/01/09 08:19:04;;;;;;;23.90;14.30;;;0.20;99.90;;;;;;476344;248;28018;-69
2021/01/09 08:21:05;;;;;;;21.17;12.75;;;0.20;99.90;;;;;;476265;249;27893;-69
2021/01/09 08:23:08;;;;;;;23.38;14.55;;;0.20;99.90;;;;;;476348;248;27488;-70
2021/01/09 08:25:08;;;;;;;26.27;15.05;;;0.20;99.90;;;;;;476295;249;27468;-71
2021/01/09 08:27:09;;;;;;;24.45;15.00;;;0.20;99.90;;;;;;476331;248;27449;-69
2021/01/09 08:29:10;;;;;;;24.90;13.90;;;0.20;99.90;;;;;;476334;249;27474;-69
2021/01/09 08:31:12;;;;;;;22.60;13.62;;;0.20;99.90;;;;;;476107;249;27468;-69
2021/01/09 08:33:19;;;;;;;23.55;14.13;;;0.20;99.90;;;;;;476313;249;28031;-71
2021/01/09 08:35:20;;;;;;;25.30;14.18;;;0.10;99.90;;;;;;476332;249;27470;-69
2021/01/09 08:37:21;;;;;;;21.95;12.90;;;0.20;99.90;;;;;;476301;249;27539;-69
2021/01/09 08:39:23;;;;;;;22.98;13.60;;;0.10;99.90;;;;;;476342;249;27460;-69
2021/01/09 08:41:24;;;;;;;21.58;13.05;;;0.20;99.90;;;;;;476288;249;27468;-70
2021/01/09 08:43:25;;;;;;;20.60;12.95;;;0.20;99.90;;;;;;476332;249;27940;-70
2021/01/09 08:45:27;;;;;;;23.87;13.23;;;0.20;99.90;;;;;;476366;249;28369;-69
2021/01/09 08:47:28;;;;;;;24.10;13.80;;;0.10;99.90;;;;;;476435;248;27448;-69
2021/01/09 08:49:35;;;;;;;20.00;12.70;;;0.20;99.90;;;;;;476462;249;27414;-69
2021/01/09 08:51:30;;;;;;;23.40;12.85;;;0.30;99.90;;;;;;475973;249;27452;-71
2021/01/09 08:53:32;;;;;;;23.62;14.85;;;0.20;99.90;;;;;;476356;249;27454;-69
2021/01/09 08:55:33;;;;;;;22.83;14.05;;;0.20;99.90;;;;;;476320;249;27477;-69
2021/01/09 08:57:34;;;;;;;20.88;13.55;;;0.30;99.90;;;;;;476333;249;27453;-70
2021/01/09 08:59:35;;;;;;;21.85;13.48;;;0.30;99.90;;;;;;476350;249;27964;-68
2021/01/09 09:01:37;;;;;;;22.65;12.75;;;0.30;99.90;;;;;;476294;249;28024;-70
2021/01/09 09:03:38;;;;;;;21.95;13.57;;;0.40;99.90;;;;;;476330;248;27544;-69
2021/01/09 09:05:40;;;;;;;23.85;13.45;;;0.50;99.90;;;;;;476476;249;27452;-69
2021/01/09 09:07:40;;;;;;;21.67;12.90;;;0.50;99.90;;;;;;476468;248;27887;-71
2021/01/09 09:09:42;;;;;;;21.00;12.85;;;0.60;99.90;;;;;;476521;249;27474;-69
2021/01/09 09:11:43;;;;;;;24.55;14.27;;;0.50;99.90;;;;;;476321;248;27575;-69
2021/01/09 09:13:44;;;;;;;23.60;14.70;;;0.40;99.90;;;;;;476287;249;27857;-69
2021/01/09 09:15:45;;;;;;;20.08;13.55;;;0.50;99.90;;;;;;475801;249;27971;-69
2021/01/09 09:17:47;;;;;;;24.50;13.40;;;0.50;99.90;;;;;;475702;248;27541;-71
2021/01/09 09:19:48;;;;;;;26.05;13.18;;;0.60;99.90;;;;;;475946;248;27432;-68
2021/01/09 09:21:49;;;;;;;23.35;14.13;;;0.60;99.90;;;;;;476389;249;27550;-69
2021/01/09 09:23:50;;;;;;;24.25;13.90;;;0.50;99.90;;;;;;476457;249;27515;-69
2021/01/09 09:25:52;;;;;;;22.17;13.18;;;0.60;99.90;;;;;;476376;249;27441;-69
2021/01/09 09:27:53;;;;;;;22.80;13.50;;;0.70;99.90;;;;;;476304;249;27456;-71
2021/01/09 09:29:54;;;;;;;21.50;13.27;;;0.60;99.90;;;;;;476357;249;27878;-69
2021/01/09 09:31:55;;;;;;;21.62;13.65;;;0.50;99.90;;;;;;476270;249;28028;-69
2021/01/09 09:33:57;;;;;;;22.92;13.75;;;0.60;99.90;;;;;;476327;249;27581;-70
2021/01/09 09:35:58;;;;;;;22.85;13.27;;;0.70;99.90;;;;;;476320;248;27539;-70
2021/01/09 09:38:01;;;;;;;22.75;13.00;;;0.80;99.90;;;;;;476377;248;27536;-69
2021/01/09 09:40:00;;;;;;;21.83;12.98;;;0.70;99.90;;;;;;476230;249;27424;-69
2021/01/09 09:42:02;;;;;;;18.77;12.90;;;0.80;99.90;;;;;;476331;249;27469;-69
2021/01/09 09:44:03;;;;;;;24.42;14.45;;;0.90;99.90;;;;;;476342;249;27469;-70
2021/01/09 09:46:04;;;;;;;20.52;13.80;;;0.90;99.90;;;;;;476306;249;27984;-69
2021/01/09 09:48:05;;;;;;;18.85;12.10;;;0.80;99.90;;;;;;476337;248;27939;-69
2021/01/09 09:50:07;;;;;;;19.08;12.52;;;0.70;99.90;;;;;;476288;249;27441;-70
2021/01/09 09:52:08;;;;;;;21.55;12.52;;;0.70;99.90;;;;;;476225;249;27464;-69
2021/01/09 09:54:09;;;;;;;24.48;14.00;;;0.80;99.90;;;;;;476344;249;27539;-68
2021/01/09 09:56:11;;;;;;;20.55;12.65;;;0.70;99.90;;;;;;476342;249;27488;-69
2021/01/09 09:58:12;;;;;;;23.58;13.85;;;0.70;99.90;;;;;;476346;249;27461;-69
2021/01/09 10:00:13;;;;;;;21.85;13.50;;;0.80;99.90;;;;;;476320;249;27930;-70
2021/01/09 10:02:14;;;;;;;26.10;16.62;;;0.80;99.90;;;;;;476345;249;28021;-71
2021/01/09 10:04:16;;;;;;;23.62;15.55;;;0.80;99.90;;;;;;476419;248;27924;-69
2021/01/09 10:06:17;;;;;;;21.35;14.40;;;0.90;99.90;;;;;;476403;249;27471;-69
2021/01/09 10:08:18;;;;;;;26.62;15.65;;;0.90;99.90;;;;;;476243;249;27535;-70
2021/01/09 10:10:19;;;;;;;25.65;14.48;;;0.90;99.90;;;;;;476290;248;27547;-71
2021/01/09 10:12:21;;;;;;;24.40;15.55;;;0.90;99.90;;;;;;475732;248;27412;-69
2021/01/09 10:14:22;;;;;;;18.45;10.65;;;1.00;99.90;;;;;;476331;248;27477;-69
2021/01/09 10:16:23;;;;;;;28.17;16.02;;;1.00;99.90;;;;;;476308;249;28836;-70
2021/01/09 10:18:24;;;;;;;19.05;12.63;;;1.00;99.90;;;;;;476267;249;27868;-69
2021/01/09 10:20:26;;;;;;;28.90;16.80;;;1.00;99.90;;;;;;476186;249;27468;-70